sensor_id;sensor_type;location;lat;lon;timestamp;P1;durP1;ratioP1;P2;durP2;ratioP2
20397;SDS011;10358;49.590;11.030;2023-01-13T00:00:26;2.67;;;1.00;;
20397;SDS011;10358;49.590;11.030;2023-01-13T00:02:52;1.67;;;0.73;;
20397;SDS011;10358;49.590;11.030;2023-01-13T00:05:17;2.23;;;1.03;;
20397;SDS011;10358;49.590;11.030;2023-01-13T00:07:43;5.90;;;1.10;;
20397;SDS011;10358;49.590;11.030;2023-01-13T00:10:10;2.27;;;1.03;;
20397;SDS011;10358;49.590;11.030;2023-01-13T00:12:39;1.57;;;0.90;;
20397;SDS011;10358;49.590;11.030;2023-01-13T00:15:06;2.30;;;0.90;;
20397;SDS011;10358;49.590;11.030;2023-01-13T00:17:32;2.67;;;0.70;;
20397;SDS011;10358;49.590;11.030;2023-01-13T00:19:58;3.13;;;0.97;;
20397;SDS011;10358;49.590;11.030;2023-01-13T00:22:23;4.57;;;0.83;;
20397;SDS011;10358;49.590;11.030;2023-01-13T00:24:49;4.27;;;1.10;;
20397;SDS011;10358;49.590;11.030;2023-01-13T00:27:14;1.27;;;0.80;;
20397;SDS011;10358;49.590;11.030;2023-01-13T00:29:40;2.80;;;1.10;;
20397;SDS011;10358;49.590;11.030;2023-01-13T00:32:06;4.77;;;0.90;;
20397;SDS011;10358;49.590;11.030;2023-01-13T00:34:31;3.33;;;1.07;;
20397;SDS011;10358;49.590;11.030;2023-01-13T00:36:57;1.50;;;0.80;;
20397;SDS011;10358;49.590;11.030;2023-01-13T00:39:23;2.43;;;1.13;;
20397;SDS011;10358;49.590;11.030;2023-01-13T00:41:48;1.93;;;0.90;;
20397;SDS011;10358;49.590;11.030;2023-01-13T00:44:32;3.03;;;1.00;;
20397;SDS011;10358;49.590;11.030;2023-01-13T00:46:58;1.13;;;0.60;;
20397;SDS011;10358;49.590;11.030;2023-01-13T00:49:23;3.67;;;1.00;;
20397;SDS011;10358;49.590;11.030;2023-01-13T00:51:49;2.27;;;1.10;;
20397;SDS011;10358;49.590;11.030;2023-01-13T00:54:14;7.50;;;1.07;;
20397;SDS011;10358;49.590;11.030;2023-01-13T00:56:40;2.43;;;0.97;;
20397;SDS011;10358;49.590;11.030;2023-01-13T00:59:06;1.50;;;0.80;;
20397;SDS011;10358;49.590;11.030;2023-01-13T01:01:36;1.47;;;0.70;;
20397;SDS011;10358;49.590;11.030;2023-01-13T01:04:01;3.23;;;0.90;;
20397;SDS011;10358;49.590;11.030;2023-01-13T01:06:27;5.47;;;1.00;;
20397;SDS011;10358;49.590;11.030;2023-01-13T01:08:53;3.70;;;1.00;;
20397;SDS011;10358;49.590;11.030;2023-01-13T01:11:21;4.23;;;1.10;;
20397;SDS011;10358;49.590;11.030;2023-01-13T01:13:48;4.03;;;1.00;;
20397;SDS011;10358;49.590;11.030;2023-01-13T01:16:18;4.97;;;0.90;;
20397;SDS011;10358;49.590;11.030;2023-01-13T01:18:46;5.63;;;1.23;;
20397;SDS011;10358;49.590;11.030;2023-01-13T01:21:13;2.40;;;0.90;;
20397;SDS011;10358;49.590;11.030;2023-01-13T01:23:40;2.40;;;0.90;;
20397;SDS011;10358;49.590;11.030;2023-01-13T01:26:08;1.87;;;0.90;;
20397;SDS011;10358;49.590;11.030;2023-01-13T01:28:45;3.97;;;1.10;;
20397;SDS011;10358;49.590;11.030;2023-01-13T01:31:12;1.30;;;0.70;;
20397;SDS011;10358;49.590;11.030;2023-01-13T01:33:57;3.40;;;0.93;;
20397;SDS011;10358;49.590;11.030;2023-01-13T01:36:24;0.73;;;0.60;;
20397;SDS011;10358;49.590;11.030;2023-01-13T01:38:54;2.23;;;0.90;;
20397;SDS011;10358;49.590;11.030;2023-01-13T01:41:22;3.50;;;1.00;;
20397;SDS011;10358;49.590;11.030;2023-01-13T01:43:53;3.73;;;1.10;;
20397;SDS011;10358;49.590;11.030;2023-01-13T01:46:33;2.40;;;0.80;;
20397;SDS011;10358;49.590;11.030;2023-01-13T01:52:00;1.50;;;0.80;;
20397;SDS011;10358;49.590;11.030;2023-01-13T01:54:37;3.03;;;0.90;;
20397;SDS011;10358;49.590;11.030;2023-01-13T01:57:12;3.23;;;1.37;;
20397;SDS011;10358;49.590;11.030;2023-01-13T01:59:42;1.57;;;0.77;;
20397;SDS011;10358;49.590;11.030;2023-01-13T02:02:08;1.80;;;0.80;;
20397;SDS011;10358;49.590;11.030;2023-01-13T02:04:38;2.97;;;0.80;;
20397;SDS011;10358;49.590;11.030;2023-01-13T02:07:07;2.23;;;0.90;;
20397;SDS011;10358;49.590;11.030;2023-01-13T02:09:33;6.07;;;0.90;;
20397;SDS011;10358;49.590;11.030;2023-01-13T02:12:00;1.67;;;0.90;;
20397;SDS011;10358;49.590;11.030;2023-01-13T02:14:44;2.87;;;1.00;;
20397;SDS011;10358;49.590;11.030;2023-01-13T02:17:17;3.77;;;0.97;;
20397;SDS011;10358;49.590;11.030;2023-01-13T02:28:03;4.80;;;0.70;;
20397;SDS011;10358;49.590;11.030;2023-01-13T02:33:26;3.27;;;1.00;;
20397;SDS011;10358;49.590;11.030;2023-01-13T02:38:32;4.90;;;0.90;;
20397;SDS011;10358;49.590;11.030;2023-01-13T02:41:03;2.53;;;0.90;;
20397;SDS011;10358;49.590;11.030;2023-01-13T02:43:53;1.90;;;0.97;;
20397;SDS011;10358;49.590;11.030;2023-01-13T02:49:18;6.10;;;0.80;;
20397;SDS011;10358;49.590;11.030;2023-01-13T02:52:05;3.47;;;0.90;;
20397;SDS011;10358;49.590;11.030;2023-01-13T02:54:38;2.23;;;0.70;;
20397;SDS011;10358;49.590;11.030;2023-01-13T02:57:08;5.03;;;1.03;;
20397;SDS011;10358;49.590;11.030;2023-01-13T02:59:35;2.50;;;0.80;;
20397;SDS011;10358;49.590;11.030;2023-01-13T03:02:03;2.47;;;1.00;;
20397;SDS011;10358;49.590;11.030;2023-01-13T03:04:48;2.53;;;0.90;;
20397;SDS011;10358;49.590;11.030;2023-01-13T03:10:15;5.43;;;1.00;;
20397;SDS011;10358;49.590;11.030;2023-01-13T03:13:10;1.13;;;0.63;;
20397;SDS011;10358;49.590;11.030;2023-01-13T03:18:16;2.57;;;0.90;;
20397;SDS011;10358;49.590;11.030;2023-01-13T03:20:48;2.60;;;0.90;;
20397;SDS011;10358;49.590;11.030;2023-01-13T03:23:40;3.03;;;0.90;;
20397;SDS011;10358;49.590;11.030;2023-01-13T03:26:13;1.23;;;0.73;;
20397;SDS011;10358;49.590;11.030;2023-01-13T03:28:48;4.43;;;0.90;;
20397;SDS011;10358;49.590;11.030;2023-01-13T03:31:44;2.00;;;0.80;;
20397;SDS011;10358;49.590;11.030;2023-01-13T03:34:38;2.13;;;0.80;;
20397;SDS011;10358;49.590;11.030;2023-01-13T03:37:10;3.20;;;0.80;;
20397;SDS011;10358;49.590;11.030;2023-01-13T03:39:38;1.30;;;0.80;;
20397;SDS011;10358;49.590;11.030;2023-01-13T03:42:12;2.10;;;0.70;;
20397;SDS011;10358;49.590;11.030;2023-01-13T03:44:47;1.67;;;0.77;;
20397;SDS011;10358;49.590;11.030;2023-01-13T03:47:21;3.63;;;0.90;;
20397;SDS011;10358;49.590;11.030;2023-01-13T03:49:52;1.90;;;0.70;;
20397;SDS011;10358;49.590;11.030;2023-01-13T03:52:34;2.03;;;0.70;;
20397;SDS011;10358;49.590;11.030;2023-01-13T03:55:17;7.57;;;0.93;;
20397;SDS011;10358;49.590;11.030;2023-01-13T03:57:52;3.50;;;0.80;;
20397;SDS011;10358;49.590;11.030;2023-01-13T04:00:28;2.47;;;0.80;;
20397;SDS011;10358;49.590;11.030;2023-01-13T04:03:09;3.13;;;0.80;;
20397;SDS011;10358;49.590;11.030;2023-01-13T04:05:39;1.87;;;0.80;;
20397;SDS011;10358;49.590;11.030;2023-01-13T04:08:28;2.90;;;0.90;;
20397;SDS011;10358;49.590;11.030;2023-01-13T04:11:07;1.67;;;0.67;;
20397;SDS011;10358;49.590;11.030;2023-01-13T04:13:38;3.10;;;0.90;;
20397;SDS011;10358;49.590;11.030;2023-01-13T04:16:06;2.47;;;0.80;;
20397;SDS011;10358;49.590;11.030;2023-01-13T04:18:35;2.70;;;0.87;;
20397;SDS011;10358;49.590;11.030;2023-01-13T04:21:02;3.63;;;0.80;;
20397;SDS011;10358;49.590;11.030;2023-01-13T04:23:28;3.43;;;0.83;;
20397;SDS011;10358;49.590;11.030;2023-01-13T04:25:54;3.20;;;0.90;;
20397;SDS011;10358;49.590;11.030;2023-01-13T04:28:21;1.73;;;0.77;;
20397;SDS011;10358;49.590;11.030;2023-01-13T04:30:46;2.43;;;0.80;;
20397;SDS011;10358;49.590;11.030;2023-01-13T04:33:13;3.07;;;1.00;;
20397;SDS011;10358;49.590;11.030;2023-01-13T04:35:40;1.60;;;0.70;;
20397;SDS011;10358;49.590;11.030;2023-01-13T04:38:07;1.30;;;0.70;;
20397;SDS011;10358;49.590;11.030;2023-01-13T04:40:37;2.77;;;0.80;;
20397;SDS011;10358;49.590;11.030;2023-01-13T04:43:04;2.83;;;0.80;;
20397;SDS011;10358;49.590;11.030;2023-01-13T04:45:30;4.10;;;0.90;;
20397;SDS011;10358;49.590;11.030;2023-01-13T04:47:55;2.67;;;0.80;;
20397;SDS011;10358;49.590;11.030;2023-01-13T04:50:21;5.67;;;0.77;;
20397;SDS011;10358;49.590;11.030;2023-01-13T04:52:50;3.03;;;0.70;;
20397;SDS011;10358;49.590;11.030;2023-01-13T04:55:17;3.87;;;0.80;;
20397;SDS011;10358;49.590;11.030;2023-01-13T04:57:44;1.63;;;0.80;;
20397;SDS011;10358;49.590;11.030;2023-01-13T05:00:10;3.13;;;0.77;;
20397;SDS011;10358;49.590;11.030;2023-01-13T05:02:38;5.67;;;0.80;;
20397;SDS011;10358;49.590;11.030;2023-01-13T05:05:04;2.10;;;0.80;;
20397;SDS011;10358;49.590;11.030;2023-01-13T05:07:30;1.43;;;0.70;;
20397;SDS011;10358;49.590;11.030;2023-01-13T05:09:56;4.27;;;0.70;;
20397;SDS011;10358;49.590;11.030;2023-01-13T05:12:21;3.93;;;0.70;;
20397;SDS011;10358;49.590;11.030;2023-01-13T05:15:06;3.27;;;0.90;;
20397;SDS011;10358;49.590;11.030;2023-01-13T05:17:51;4.20;;;0.90;;
20397;SDS011;10358;49.590;11.030;2023-01-13T05:20:16;1.57;;;0.70;;
20397;SDS011;10358;49.590;11.030;2023-01-13T05:22:42;3.37;;;0.90;;
20397;SDS011;10358;49.590;11.030;2023-01-13T05:25:26;1.37;;;0.70;;
20397;SDS011;10358;49.590;11.030;2023-01-13T05:27:56;1.63;;;0.73;;
20397;SDS011;10358;49.590;11.030;2023-01-13T05:30:27;2.43;;;1.00;;
20397;SDS011;10358;49.590;11.030;2023-01-13T05:32:55;1.57;;;0.90;;
20397;SDS011;10358;49.590;11.030;2023-01-13T05:35:22;0.73;;;0.67;;
20397;SDS011;10358;49.590;11.030;2023-01-13T05:37:48;1.17;;;0.63;;
20397;SDS011;10358;49.590;11.030;2023-01-13T05:40:14;4.10;;;1.00;;
20397;SDS011;10358;49.590;11.030;2023-01-13T05:43:03;1.00;;;0.70;;
20397;SDS011;10358;49.590;11.030;2023-01-13T05:48:15;1.70;;;0.63;;
20397;SDS011;10358;49.590;11.030;2023-01-13T05:50:41;0.63;;;0.60;;
20397;SDS011;10358;49.590;11.030;2023-01-13T05:53:07;2.57;;;0.73;;
20397;SDS011;10358;49.590;11.030;2023-01-13T05:55:32;3.77;;;1.50;;
20397;SDS011;10358;49.590;11.030;2023-01-13T05:57:58;5.23;;;1.30;;
20397;SDS011;10358;49.590;11.030;2023-01-13T06:00:24;2.90;;;1.30;;
20397;SDS011;10358;49.590;11.030;2023-01-13T06:02:50;2.80;;;1.20;;
20397;SDS011;10358;49.590;11.030;2023-01-13T06:05:16;1.40;;;1.00;;
20397;SDS011;10358;49.590;11.030;2023-01-13T06:07:41;2.93;;;1.00;;
20397;SDS011;10358;49.590;11.030;2023-01-13T06:10:07;6.60;;;2.70;;
20397;SDS011;10358;49.590;11.030;2023-01-13T06:12:33;11.23;;;4.70;;
20397;SDS011;10358;49.590;11.030;2023-01-13T06:14:59;6.63;;;2.40;;
20397;SDS011;10358;49.590;11.030;2023-01-13T06:17:24;3.37;;;1.80;;
20397;SDS011;10358;49.590;11.030;2023-01-13T06:19:50;5.67;;;2.27;;
20397;SDS011;10358;49.590;11.030;2023-01-13T06:22:17;8.23;;;2.97;;
20397;SDS011;10358;49.590;11.030;2023-01-13T06:24:45;6.30;;;2.17;;
20397;SDS011;10358;49.590;11.030;2023-01-13T06:27:12;8.57;;;3.33;;
20397;SDS011;10358;49.590;11.030;2023-01-13T06:29:39;4.77;;;2.30;;
20397;SDS011;10358;49.590;11.030;2023-01-13T06:32:06;2.10;;;1.20;;
20397;SDS011;10358;49.590;11.030;2023-01-13T06:34:37;6.47;;;1.37;;
20397;SDS011;10358;49.590;11.030;2023-01-13T06:37:04;2.90;;;1.20;;
20397;SDS011;10358;49.590;11.030;2023-01-13T06:39:30;3.77;;;1.23;;
20397;SDS011;10358;49.590;11.030;2023-01-13T06:41:56;3.10;;;1.10;;
20397;SDS011;10358;49.590;11.030;2023-01-13T06:44:42;2.10;;;0.90;;
20397;SDS011;10358;49.590;11.030;2023-01-13T06:47:09;3.27;;;1.33;;
20397;SDS011;10358;49.590;11.030;2023-01-13T06:49:34;3.47;;;1.30;;
20397;SDS011;10358;49.590;11.030;2023-01-13T06:52:00;1.90;;;1.00;;
20397;SDS011;10358;49.590;11.030;2023-01-13T06:54:25;5.43;;;1.10;;
20397;SDS011;10358;49.590;11.030;2023-01-13T06:56:51;4.27;;;1.00;;
20397;SDS011;10358;49.590;11.030;2023-01-13T06:59:16;3.93;;;0.90;;
20397;SDS011;10358;49.590;11.030;2023-01-13T07:01:42;3.27;;;1.17;;
20397;SDS011;10358;49.590;11.030;2023-01-13T07:04:07;2.80;;;0.90;;
20397;SDS011;10358;49.590;11.030;2023-01-13T07:06:33;3.63;;;1.00;;
20397;SDS011;10358;49.590;11.030;2023-01-13T07:08:59;4.07;;;1.10;;
20397;SDS011;10358;49.590;11.030;2023-01-13T07:11:24;6.70;;;1.20;;
20397;SDS011;10358;49.590;11.030;2023-01-13T07:13:50;2.33;;;1.10;;
20397;SDS011;10358;49.590;11.030;2023-01-13T07:16:34;4.30;;;1.30;;
20397;SDS011;10358;49.590;11.030;2023-01-13T07:18:59;4.50;;;1.37;;
20397;SDS011;10358;49.590;11.030;2023-01-13T07:21:25;4.23;;;1.23;;
20397;SDS011;10358;49.590;11.030;2023-01-13T07:23:51;2.37;;;1.20;;
20397;SDS011;10358;49.590;11.030;2023-01-13T07:26:17;2.90;;;0.83;;
20397;SDS011;10358;49.590;11.030;2023-01-13T07:28:42;6.20;;;1.20;;
20397;SDS011;10358;49.590;11.030;2023-01-13T07:31:15;6.27;;;1.23;;
20397;SDS011;10358;49.590;11.030;2023-01-13T07:33:42;2.87;;;1.23;;
20397;SDS011;10358;49.590;11.030;2023-01-13T07:36:09;2.90;;;1.10;;
20397;SDS011;10358;49.590;11.030;2023-01-13T07:38:34;2.87;;;0.97;;
20397;SDS011;10358;49.590;11.030;2023-01-13T07:41:00;2.73;;;1.13;;
20397;SDS011;10358;49.590;11.030;2023-01-13T07:43:45;2.47;;;0.90;;
20397;SDS011;10358;49.590;11.030;2023-01-13T07:46:10;2.77;;;0.90;;
20397;SDS011;10358;49.590;11.030;2023-01-13T07:48:36;2.27;;;1.00;;
20397;SDS011;10358;49.590;11.030;2023-01-13T07:51:05;2.23;;;0.80;;
20397;SDS011;10358;49.590;11.030;2023-01-13T07:53:32;2.47;;;1.10;;
20397;SDS011;10358;49.590;11.030;2023-01-13T07:55:58;2.27;;;1.40;;
20397;SDS011;10358;49.590;11.030;2023-01-13T07:58:25;2.83;;;1.13;;
20397;SDS011;10358;49.590;11.030;2023-01-13T08:00:51;3.17;;;1.40;;
20397;SDS011;10358;49.590;11.030;2023-01-13T08:03:17;4.37;;;1.13;;
20397;SDS011;10358;49.590;11.030;2023-01-13T08:05:42;6.40;;;1.37;;
20397;SDS011;10358;49.590;11.030;2023-01-13T08:08:08;4.40;;;1.30;;
20397;SDS011;10358;49.590;11.030;2023-01-13T08:10:34;5.00;;;1.20;;
20397;SDS011;10358;49.590;11.030;2023-01-13T08:13:04;2.97;;;1.13;;
20397;SDS011;10358;49.590;11.030;2023-01-13T08:15:42;4.83;;;1.23;;
20397;SDS011;10358;49.590;11.030;2023-01-13T08:18:08;3.23;;;1.23;;
20397;SDS011;10358;49.590;11.030;2023-01-13T08:20:34;3.53;;;1.20;;
20397;SDS011;10358;49.590;11.030;2023-01-13T08:23:00;2.30;;;1.00;;
20397;SDS011;10358;49.590;11.030;2023-01-13T08:25:26;4.63;;;1.30;;
20397;SDS011;10358;49.590;11.030;2023-01-13T08:27:53;3.67;;;1.00;;
20397;SDS011;10358;49.590;11.030;2023-01-13T08:30:19;3.10;;;1.07;;
20397;SDS011;10358;49.590;11.030;2023-01-13T08:32:46;4.97;;;1.20;;
20397;SDS011;10358;49.590;11.030;2023-01-13T08:35:13;2.83;;;1.00;;
20397;SDS011;10358;49.590;11.030;2023-01-13T08:37:40;4.33;;;1.10;;
20397;SDS011;10358;49.590;11.030;2023-01-13T08:40:05;3.87;;;1.30;;
20397;SDS011;10358;49.590;11.030;2023-01-13T08:42:32;5.87;;;1.20;;
20397;SDS011;10358;49.590;11.030;2023-01-13T08:44:58;4.13;;;1.10;;
20397;SDS011;10358;49.590;11.030;2023-01-13T08:47:26;6.70;;;1.27;;
20397;SDS011;10358;49.590;11.030;2023-01-13T08:49:53;3.13;;;1.30;;
20397;SDS011;10358;49.590;11.030;2023-01-13T08:52:18;2.07;;;1.00;;
20397;SDS011;10358;49.590;11.030;2023-01-13T08:54:44;3.30;;;1.00;;
20397;SDS011;10358;49.590;11.030;2023-01-13T08:57:10;2.93;;;1.27;;
20397;SDS011;10358;49.590;11.030;2023-01-13T08:59:35;3.77;;;1.10;;
20397;SDS011;10358;49.590;11.030;2023-01-13T09:02:01;2.27;;;1.20;;
20397;SDS011;10358;49.590;11.030;2023-01-13T09:04:28;1.87;;;1.00;;
20397;SDS011;10358;49.590;11.030;2023-01-13T09:06:54;3.37;;;1.20;;
20397;SDS011;10358;49.590;11.030;2023-01-13T09:09:20;5.17;;;1.13;;
20397;SDS011;10358;49.590;11.030;2023-01-13T09:11:48;3.80;;;1.20;;
20397;SDS011;10358;49.590;11.030;2023-01-13T09:14:34;2.23;;;1.17;;
20397;SDS011;10358;49.590;11.030;2023-01-13T09:17:01;2.40;;;1.40;;
20397;SDS011;10358;49.590;11.030;2023-01-13T09:19:27;2.53;;;1.10;;
20397;SDS011;10358;49.590;11.030;2023-01-13T09:21:53;4.37;;;1.30;;
20397;SDS011;10358;49.590;11.030;2023-01-13T09:24:21;5.20;;;1.40;;
20397;SDS011;10358;49.590;11.030;2023-01-13T09:26:47;4.60;;;1.17;;
20397;SDS011;10358;49.590;11.030;2023-01-13T09:29:13;3.03;;;1.07;;
20397;SDS011;10358;49.590;11.030;2023-01-13T09:31:39;2.80;;;1.37;;
20397;SDS011;10358;49.590;11.030;2023-01-13T09:34:06;2.63;;;1.10;;
20397;SDS011;10358;49.590;11.030;2023-01-13T09:36:56;4.07;;;1.60;;
20397;SDS011;10358;49.590;11.030;2023-01-13T09:39:21;5.50;;;2.17;;
20397;SDS011;10358;49.590;11.030;2023-01-13T09:41:48;5.23;;;1.90;;
20397;SDS011;10358;49.590;11.030;2023-01-13T09:47:08;4.10;;;1.20;;
20397;SDS011;10358;49.590;11.030;2023-01-13T09:49:41;2.93;;;1.20;;
20397;SDS011;10358;49.590;11.030;2023-01-13T09:52:18;2.30;;;1.20;;
20397;SDS011;10358;49.590;11.030;2023-01-13T09:55:02;4.20;;;1.40;;
20397;SDS011;10358;49.590;11.030;2023-01-13T09:57:31;2.00;;;0.97;;
20397;SDS011;10358;49.590;11.030;2023-01-13T10:00:00;1.40;;;0.87;;
20397;SDS011;10358;49.590;11.030;2023-01-13T10:05:05;1.10;;;0.87;;
20397;SDS011;10358;49.590;11.030;2023-01-13T10:07:57;2.47;;;1.03;;
20397;SDS011;10358;49.590;11.030;2023-01-13T10:13:00;1.33;;;0.70;;
20397;SDS011;10358;49.590;11.030;2023-01-13T10:15:46;1.23;;;0.80;;
20397;SDS011;10358;49.590;11.030;2023-01-13T10:21:47;1.30;;;0.80;;
20397;SDS011;10358;49.590;11.030;2023-01-13T10:35:06;1.07;;;0.80;;
20397;SDS011;10358;49.590;11.030;2023-01-13T10:37:32;2.37;;;0.90;;
20397;SDS011;10358;49.590;11.030;2023-01-13T10:40:00;2.17;;;1.00;;
20397;SDS011;10358;49.590;11.030;2023-01-13T10:42:27;2.53;;;0.87;;
20397;SDS011;10358;49.590;11.030;2023-01-13T10:44:54;2.87;;;1.10;;
20397;SDS011;10358;49.590;11.030;2023-01-13T10:47:28;2.33;;;0.83;;
20397;SDS011;10358;49.590;11.030;2023-01-13T10:52:37;1.43;;;0.83;;
20397;SDS011;10358;49.590;11.030;2023-01-13T10:58:10;2.53;;;1.10;;
20397;SDS011;10358;49.590;11.030;2023-01-13T11:00:36;1.63;;;0.90;;
20397;SDS011;10358;49.590;11.030;2023-01-13T11:05:48;1.87;;;0.90;;
20397;SDS011;10358;49.590;11.030;2023-01-13T11:08:16;1.87;;;0.90;;
20397;SDS011;10358;49.590;11.030;2023-01-13T11:10:45;2.03;;;0.70;;
20397;SDS011;10358;49.590;11.030;2023-01-13T11:16:21;2.13;;;0.80;;
20397;SDS011;10358;49.590;11.030;2023-01-13T11:19:01;3.17;;;0.80;;
20397;SDS011;10358;49.590;11.030;2023-01-13T11:21:38;3.50;;;0.90;;
20397;SDS011;10358;49.590;11.030;2023-01-13T11:24:33;3.17;;;1.00;;
20397;SDS011;10358;49.590;11.030;2023-01-13T11:41:08;2.37;;;0.90;;
20397;SDS011;10358;49.590;11.030;2023-01-13T11:46:28;7.40;;;1.07;;
20397;SDS011;10358;49.590;11.030;2023-01-13T11:48:53;2.10;;;0.90;;
20397;SDS011;10358;49.590;11.030;2023-01-13T12:05:22;4.70;;;1.00;;
20397;SDS011;10358;49.590;11.030;2023-01-13T12:10:57;3.63;;;0.90;;
20397;SDS011;10358;49.590;11.030;2023-01-13T12:16:19;3.50;;;1.20;;
20397;SDS011;10358;49.590;11.030;2023-01-13T12:21:30;4.27;;;1.00;;
20397;SDS011;10358;49.590;11.030;2023-01-13T12:26:38;4.27;;;1.10;;
20397;SDS011;10358;49.590;11.030;2023-01-13T12:29:11;3.37;;;1.10;;
20397;SDS011;10358;49.590;11.030;2023-01-13T12:31:42;3.73;;;0.80;;
20397;SDS011;10358;49.590;11.030;2023-01-13T12:36:56;4.23;;;1.10;;
20397;SDS011;10358;49.590;11.030;2023-01-13T12:47:47;3.80;;;1.10;;
20397;SDS011;10358;49.590;11.030;2023-01-13T12:53:00;3.73;;;1.20;;
20397;SDS011;10358;49.590;11.030;2023-01-13T12:55:52;7.57;;;1.20;;
20397;SDS011;10358;49.590;11.030;2023-01-13T12:58:24;6.20;;;1.10;;
20397;SDS011;10358;49.590;11.030;2023-01-13T13:01:09;5.00;;;1.00;;
20397;SDS011;10358;49.590;11.030;2023-01-13T13:03:37;4.73;;;1.20;;
20397;SDS011;10358;49.590;11.030;2023-01-13T13:06:05;4.30;;;1.23;;
20397;SDS011;10358;49.590;11.030;2023-01-13T13:11:40;4.90;;;1.20;;
20397;SDS011;10358;49.590;11.030;2023-01-13T13:19:52;8.80;;;1.50;;
20397;SDS011;10358;49.590;11.030;2023-01-13T13:27:16;4.47;;;1.20;;
20397;SDS011;10358;49.590;11.030;2023-01-13T13:40:57;6.70;;;1.37;;
20397;SDS011;10358;49.590;11.030;2023-01-13T13:43:43;6.47;;;1.30;;
20397;SDS011;10358;49.590;11.030;2023-01-13T13:46:31;7.03;;;1.23;;
20397;SDS011;10358;49.590;11.030;2023-01-13T13:49:12;5.60;;;1.07;;
20397;SDS011;10358;49.590;11.030;2023-01-13T13:51:50;3.73;;;1.37;;
20397;SDS011;10358;49.590;11.030;2023-01-13T13:54:39;3.67;;;1.20;;
20397;SDS011;10358;49.590;11.030;2023-01-13T13:57:17;2.57;;;1.17;;
20397;SDS011;10358;49.590;11.030;2023-01-13T13:59:53;6.33;;;1.20;;
20397;SDS011;10358;49.590;11.030;2023-01-13T14:02:29;4.70;;;1.10;;
20397;SDS011;10358;49.590;11.030;2023-01-13T14:05:14;7.27;;;1.30;;
20397;SDS011;10358;49.590;11.030;2023-01-13T14:07:58;5.13;;;1.37;;
20397;SDS011;10358;49.590;11.030;2023-01-13T14:10:27;5.83;;;1.23;;
20397;SDS011;10358;49.590;11.030;2023-01-13T14:13:22;5.63;;;1.40;;
20397;SDS011;10358;49.590;11.030;2023-01-13T14:16:10;3.70;;;1.13;;
20397;SDS011;10358;49.590;11.030;2023-01-13T14:18:45;8.37;;;1.30;;
20397;SDS011;10358;49.590;11.030;2023-01-13T14:21:17;6.03;;;1.40;;
20397;SDS011;10358;49.590;11.030;2023-01-13T14:24:11;5.00;;;1.27;;
20397;SDS011;10358;49.590;11.030;2023-01-13T14:26:38;4.80;;;1.27;;
20397;SDS011;10358;49.590;11.030;2023-01-13T14:29:04;5.73;;;1.33;;
20397;SDS011;10358;49.590;11.030;2023-01-13T14:31:30;5.07;;;1.30;;
20397;SDS011;10358;49.590;11.030;2023-01-13T14:33:57;8.20;;;1.53;;
20397;SDS011;10358;49.590;11.030;2023-01-13T14:41:32;5.67;;;1.43;;
20397;SDS011;10358;49.590;11.030;2023-01-13T14:44:01;4.10;;;1.20;;
20397;SDS011;10358;49.590;11.030;2023-01-13T14:46:39;6.67;;;1.30;;
20397;SDS011;10358;49.590;11.030;2023-01-13T14:49:13;4.33;;;1.30;;
20397;SDS011;10358;49.590;11.030;2023-01-13T14:51:46;4.83;;;1.20;;
20397;SDS011;10358;49.590;11.030;2023-01-13T14:57:11;4.93;;;1.40;;
20397;SDS011;10358;49.590;11.030;2023-01-13T15:04:56;7.73;;;1.50;;
20397;SDS011;10358;49.590;11.030;2023-01-13T15:07:48;8.47;;;1.37;;
20397;SDS011;10358;49.590;11.030;2023-01-13T15:10:19;6.17;;;1.30;;
20397;SDS011;10358;49.590;11.030;2023-01-13T15:13:54;7.47;;;1.40;;
20397;SDS011;10358;49.590;11.030;2023-01-13T15:16:00;6.93;;;1.50;;
20397;SDS011;10358;49.590;11.030;2023-01-13T15:18:28;5.87;;;1.53;;
20397;SDS011;10358;49.590;11.030;2023-01-13T15:20:54;3.70;;;1.10;;
20397;SDS011;10358;49.590;11.030;2023-01-13T15:23:19;5.23;;;1.30;;
20397;SDS011;10358;49.590;11.030;2023-01-13T15:25:46;4.47;;;1.20;;
20397;SDS011;10358;49.590;11.030;2023-01-13T15:28:19;3.87;;;0.97;;
20397;SDS011;10358;49.590;11.030;2023-01-13T15:30:50;3.90;;;1.20;;
20397;SDS011;10358;49.590;11.030;2023-01-13T15:33:17;3.90;;;1.13;;
20397;SDS011;10358;49.590;11.030;2023-01-13T15:35:44;3.80;;;1.20;;
20397;SDS011;10358;49.590;11.030;2023-01-13T15:38:15;6.27;;;1.13;;
20397;SDS011;10358;49.590;11.030;2023-01-13T15:40:43;5.20;;;1.20;;
20397;SDS011;10358;49.590;11.030;2023-01-13T15:43:11;7.93;;;1.50;;
20397;SDS011;10358;49.590;11.030;2023-01-13T15:46:01;4.30;;;1.40;;
20397;SDS011;10358;49.590;11.030;2023-01-13T15:48:46;7.80;;;1.60;;
20397;SDS011;10358;49.590;11.030;2023-01-13T15:51:12;5.23;;;1.67;;
20397;SDS011;10358;49.590;11.030;2023-01-13T15:53:38;5.97;;;1.60;;
20397;SDS011;10358;49.590;11.030;2023-01-13T15:56:05;6.67;;;1.30;;
20397;SDS011;10358;49.590;11.030;2023-01-13T15:58:37;6.87;;;1.37;;
20397;SDS011;10358;49.590;11.030;2023-01-13T16:01:03;7.47;;;1.80;;
20397;SDS011;10358;49.590;11.030;2023-01-13T16:03:28;5.60;;;1.43;;
20397;SDS011;10358;49.590;11.030;2023-01-13T16:05:54;4.63;;;1.60;;
20397;SDS011;10358;49.590;11.030;2023-01-13T16:08:20;7.30;;;1.57;;
20397;SDS011;10358;49.590;11.030;2023-01-13T16:10:47;6.27;;;1.50;;
20397;SDS011;10358;49.590;11.030;2023-01-13T16:13:13;5.10;;;1.50;;
20397;SDS011;10358;49.590;11.030;2023-01-13T16:15:46;8.10;;;1.30;;
20397;SDS011;10358;49.590;11.030;2023-01-13T16:18:18;7.30;;;1.60;;
20397;SDS011;10358;49.590;11.030;2023-01-13T16:20:45;8.00;;;1.60;;
20397;SDS011;10358;49.590;11.030;2023-01-13T16:23:11;5.97;;;1.40;;
20397;SDS011;10358;49.590;11.030;2023-01-13T16:25:37;7.67;;;2.50;;
20397;SDS011;10358;49.590;11.030;2023-01-13T16:28:04;8.10;;;3.07;;
20397;SDS011;10358;49.590;11.030;2023-01-13T16:30:35;5.73;;;1.63;;
20397;SDS011;10358;49.590;11.030;2023-01-13T16:33:01;6.93;;;1.57;;
20397;SDS011;10358;49.590;11.030;2023-01-13T16:35:28;3.87;;;1.30;;
20397;SDS011;10358;49.590;11.030;2023-01-13T16:37:56;5.60;;;1.43;;
20397;SDS011;10358;49.590;11.030;2023-01-13T16:40:30;5.87;;;1.40;;
20397;SDS011;10358;49.590;11.030;2023-01-13T16:43:00;4.57;;;1.17;;
20397;SDS011;10358;49.590;11.030;2023-01-13T16:45:31;4.43;;;1.50;;
20397;SDS011;10358;49.590;11.030;2023-01-13T16:47:57;8.23;;;1.60;;
20397;SDS011;10358;49.590;11.030;2023-01-13T16:53:03;4.10;;;1.40;;
20397;SDS011;10358;49.590;11.030;2023-01-13T16:55:28;6.47;;;1.57;;
20397;SDS011;10358;49.590;11.030;2023-01-13T16:57:54;7.27;;;1.60;;
20397;SDS011;10358;49.590;11.030;2023-01-13T17:00:20;6.00;;;1.40;;
20397;SDS011;10358;49.590;11.030;2023-01-13T17:02:46;6.63;;;1.83;;
20397;SDS011;10358;49.590;11.030;2023-01-13T17:05:12;9.73;;;1.57;;
20397;SDS011;10358;49.590;11.030;2023-01-13T17:07:39;3.33;;;1.17;;
20397;SDS011;10358;49.590;11.030;2023-01-13T17:10:09;4.80;;;1.33;;
20397;SDS011;10358;49.590;11.030;2023-01-13T17:12:38;5.07;;;1.33;;
20397;SDS011;10358;49.590;11.030;2023-01-13T17:15:03;4.70;;;1.50;;
20397;SDS011;10358;49.590;11.030;2023-01-13T17:17:29;7.27;;;1.33;;
20397;SDS011;10358;49.590;11.030;2023-01-13T17:19:55;5.37;;;1.30;;
20397;SDS011;10358;49.590;11.030;2023-01-13T17:22:21;5.43;;;1.47;;
20397;SDS011;10358;49.590;11.030;2023-01-13T17:24:47;7.13;;;1.53;;
20397;SDS011;10358;49.590;11.030;2023-01-13T17:27:12;5.80;;;1.50;;
20397;SDS011;10358;49.590;11.030;2023-01-13T17:29:39;2.63;;;1.30;;